sensor_id;sensor_type;location;lat;lon;timestamp;P1;durP1;ratioP1;P2;durP2;ratioP2
40527;SDS011;26230;51.268;6.534;2024-01-07T00:00:00;66.4;;;46.9;;
40527;SDS011;26230;51.268;6.534;2024-01-07T00:10:01;59.8;;;44.8;;
40527;SDS011;26230;51.268;6.534;2024-01-07T00:20:00;59.8;;;44.8;;
40527;SDS011;26230;51.268;6.534;2024-01-07T00:30:01;65.2;;;46.8;;
40527;SDS011;26230;51.268;6.534;2024-01-07T00:40:01;51.3;;;41.4;;
40527;SDS011;26230;51.268;6.534;2024-01-07T00:50:00;51.3;;;41.4;;
40527;SDS011;26230;51.268;6.534;2024-01-07T01:00:05;57.0;;;42.8;;
40527;SDS011;26230;51.268;6.534;2024-01-07T01:10:02;49.1;;;39.2;;
40527;SDS011;26230;51.268;6.534;2024-01-07T01:20:01;49.1;;;39.2;;
40527;SDS011;26230;51.268;6.534;2024-01-07T01:30:00;47.8;;;38.9;;
40527;SDS011;26230;51.268;6.534;2024-01-07T01:40:01;49.1;;;39.2;;
40527;SDS011;26230;51.268;6.534;2024-01-07T01:50:00;49.1;;;39.2;;
40527;SDS011;26230;51.268;6.534;2024-01-07T02:00:05;39.1;;;35.0;;
40527;SDS011;26230;51.268;6.534;2024-01-07T02:10:01;38.3;;;34.4;;
40527;SDS011;26230;51.268;6.534;2024-01-07T02:20:00;38.3;;;34.4;;
40527;SDS011;26230;51.268;6.534;2024-01-07T02:30:00;36.8;;;33.3;;
40527;SDS011;26230;51.268;6.534;2024-01-07T02:40:02;34.9;;;31.7;;
40527;SDS011;26230;51.268;6.534;2024-01-07T02:50:00;34.9;;;31.7;;
40527;SDS011;26230;51.268;6.534;2024-01-07T03:00:00;39.3;;;35.3;;
40527;SDS011;26230;51.268;6.534;2024-01-07T03:10:00;37.6;;;33.8;;
40527;SDS011;26230;51.268;6.534;2024-01-07T03:20:00;37.6;;;33.8;;
40527;SDS011;26230;51.268;6.534;2024-01-07T03:30:00;42.5;;;38.1;;
40527;SDS011;26230;51.268;6.534;2024-01-07T03:40:00;46.1;;;39.3;;
40527;SDS011;26230;51.268;6.534;2024-01-07T03:50:00;46.1;;;39.3;;
40527;SDS011;26230;51.268;6.534;2024-01-07T04:00:00;45.9;;;39.5;;
40527;SDS011;26230;51.268;6.534;2024-01-07T04:10:01;44.1;;;37.1;;
40527;SDS011;26230;51.268;6.534;2024-01-07T04:20:00;44.1;;;37.1;;
40527;SDS011;26230;51.268;6.534;2024-01-07T04:30:00;44.5;;;37.7;;
40527;SDS011;26230;51.268;6.534;2024-01-07T04:40:00;39.1;;;35.0;;
40527;SDS011;26230;51.268;6.534;2024-01-07T04:50:01;39.1;;;35.0;;
40527;SDS011;26230;51.268;6.534;2024-01-07T05:00:02;35.4;;;32.1;;
40527;SDS011;26230;51.268;6.534;2024-01-07T05:10:00;37.7;;;34.0;;
40527;SDS011;26230;51.268;6.534;2024-01-07T05:20:01;37.7;;;34.0;;
40527;SDS011;26230;51.268;6.534;2024-01-07T05:30:01;34.7;;;31.3;;
40527;SDS011;26230;51.268;6.534;2024-01-07T05:40:00;32.6;;;29.7;;
40527;SDS011;26230;51.268;6.534;2024-01-07T05:50:02;32.6;;;29.7;;
40527;SDS011;26230;51.268;6.534;2024-01-07T06:00:00;31.1;;;28.4;;
40527;SDS011;26230;51.268;6.534;2024-01-07T06:10:00;31.2;;;28.4;;
40527;SDS011;26230;51.268;6.534;2024-01-07T06:20:01;31.2;;;28.4;;
40527;SDS011;26230;51.268;6.534;2024-01-07T06:30:00;29.8;;;27.3;;
40527;SDS011;26230;51.268;6.534;2024-01-07T06:40:01;35.0;;;31.5;;
40527;SDS011;26230;51.268;6.534;2024-01-07T06:50:01;35.0;;;31.5;;
40527;SDS011;26230;51.268;6.534;2024-01-07T07:00:00;32.9;;;29.7;;
40527;SDS011;26230;51.268;6.534;2024-01-07T07:10:00;32.3;;;29.4;;
40527;SDS011;26230;51.268;6.534;2024-01-07T07:20:03;32.3;;;29.4;;
40527;SDS011;26230;51.268;6.534;2024-01-07T07:30:00;33.0;;;29.9;;
40527;SDS011;26230;51.268;6.534;2024-01-07T07:40:03;35.0;;;31.5;;
40527;SDS011;26230;51.268;6.534;2024-01-07T07:50:02;35.0;;;31.5;;
40527;SDS011;26230;51.268;6.534;2024-01-07T08:00:05;32.2;;;29.4;;
40527;SDS011;26230;51.268;6.534;2024-01-07T08:10:00;32.1;;;29.2;;
40527;SDS011;26230;51.268;6.534;2024-01-07T08:20:01;32.1;;;29.2;;
40527;SDS011;26230;51.268;6.534;2024-01-07T08:30:02;31.7;;;28.9;;
40527;SDS011;26230;51.268;6.534;2024-01-07T08:40:00;32.8;;;29.8;;
40527;SDS011;26230;51.268;6.534;2024-01-07T08:50:00;32.8;;;29.8;;
40527;SDS011;26230;51.268;6.534;2024-01-07T09:00:01;32.9;;;29.9;;
40527;SDS011;26230;51.268;6.534;2024-01-07T09:10:00;30.7;;;28.0;;
40527;SDS011;26230;51.268;6.534;2024-01-07T09:20:02;30.7;;;28.0;;
40527;SDS011;26230;51.268;6.534;2024-01-07T09:30:01;32.4;;;29.6;;
40527;SDS011;26230;51.268;6.534;2024-01-07T09:40:00;30.6;;;27.9;;
40527;SDS011;26230;51.268;6.534;2024-01-07T09:50:02;30.6;;;27.9;;
40527;SDS011;26230;51.268;6.534;2024-01-07T10:00:02;29.9;;;27.3;;
40527;SDS011;26230;51.268;6.534;2024-01-07T10:10:18;29.2;;;26.8;;
40527;SDS011;26230;51.268;6.534;2024-01-07T10:20:00;29.2;;;26.8;;
40527;SDS011;26230;51.268;6.534;2024-01-07T10:30:01;28.2;;;25.9;;
40527;SDS011;26230;51.268;6.534;2024-01-07T10:40:03;29.3;;;26.9;;
40527;SDS011;26230;51.268;6.534;2024-01-07T10:50:03;29.3;;;26.9;;
40527;SDS011;26230;51.268;6.534;2024-01-07T11:00:00;31.5;;;28.6;;
40527;SDS011;26230;51.268;6.534;2024-01-07T11:10:06;28.5;;;26.0;;
40527;SDS011;26230;51.268;6.534;2024-01-07T11:20:01;28.5;;;26.0;;
40527;SDS011;26230;51.268;6.534;2024-01-07T11:30:07;28.6;;;26.1;;
40527;SDS011;26230;51.268;6.534;2024-01-07T11:40:04;27.5;;;25.2;;
40527;SDS011;26230;51.268;6.534;2024-01-07T11:50:03;27.5;;;25.2;;
40527;SDS011;26230;51.268;6.534;2024-01-07T12:00:01;25.8;;;23.8;;
40527;SDS011;26230;51.268;6.534;2024-01-07T12:10:00;25.4;;;23.5;;
40527;SDS011;26230;51.268;6.534;2024-01-07T12:20:04;25.4;;;23.5;;
40527;SDS011;26230;51.268;6.534;2024-01-07T12:30:01;25.5;;;23.4;;
40527;SDS011;26230;51.268;6.534;2024-01-07T12:40:01;26.5;;;24.6;;
40527;SDS011;26230;51.268;6.534;2024-01-07T12:50:01;26.5;;;24.6;;
40527;SDS011;26230;51.268;6.534;2024-01-07T13:00:01;24.6;;;22.8;;
40527;SDS011;26230;51.268;6.534;2024-01-07T13:10:01;23.9;;;22.2;;
40527;SDS011;26230;51.268;6.534;2024-01-07T13:20:01;23.9;;;22.2;;
40527;SDS011;26230;51.268;6.534;2024-01-07T13:30:00;24.7;;;22.6;;
40527;SDS011;26230;51.268;6.534;2024-01-07T13:40:01;22.0;;;20.5;;
40527;SDS011;26230;51.268;6.534;2024-01-07T13:50:00;22.0;;;20.5;;
40527;SDS011;26230;51.268;6.534;2024-01-07T14:00:09;22.0;;;20.2;;
40527;SDS011;26230;51.268;6.534;2024-01-07T14:10:04;22.5;;;20.9;;
40527;SDS011;26230;51.268;6.534;2024-01-07T14:20:03;22.5;;;20.9;;
40527;SDS011;26230;51.268;6.534;2024-01-07T14:30:02;22.5;;;20.8;;
40527;SDS011;26230;51.268;6.534;2024-01-07T14:40:00;21.6;;;20.0;;
40527;SDS011;26230;51.268;6.534;2024-01-07T14:50:02;21.6;;;20.0;;
40527;SDS011;26230;51.268;6.534;2024-01-07T15:00:01;21.8;;;20.2;;
40527;SDS011;26230;51.268;6.534;2024-01-07T15:10:00;28.4;;;25.4;;
40527;SDS011;26230;51.268;6.534;2024-01-07T15:20:01;28.4;;;25.4;;
40527;SDS011;26230;51.268;6.534;2024-01-07T15:30:00;20.8;;;19.3;;
40527;SDS011;26230;51.268;6.534;2024-01-07T15:40:00;21.8;;;20.2;;
40527;SDS011;26230;51.268;6.534;2024-01-07T15:50:01;21.8;;;20.2;;
40527;SDS011;26230;51.268;6.534;2024-01-07T16:00:00;19.8;;;18.5;;
40527;SDS011;26230;51.268;6.534;2024-01-07T16:10:01;18.9;;;17.8;;
40527;SDS011;26230;51.268;6.534;2024-01-07T16:20:01;18.9;;;17.8;;
40527;SDS011;26230;51.268;6.534;2024-01-07T16:30:00;18.7;;;17.5;;
40527;SDS011;26230;51.268;6.534;2024-01-07T16:40:01;19.4;;;18.0;;
40527;SDS011;26230;51.268;6.534;2024-01-07T16:50:05;19.4;;;18.0;;
40527;SDS011;26230;51.268;6.534;2024-01-07T17:00:02;19.0;;;17.7;;
40527;SDS011;26230;51.268;6.534;2024-01-07T17:10:01;18.2;;;17.0;;
40527;SDS011;26230;51.268;6.534;2024-01-07T17:20:01;18.2;;;17.0;;
40527;SDS011;26230;51.268;6.534;2024-01-07T17:30:00;17.3;;;16.2;;
40527;SDS011;26230;51.268;6.534;2024-01-07T17:40:01;17.1;;;16.0;;
40527;SDS011;26230;51.268;6.534;2024-01-07T17:50:01;17.1;;;16.0;;
40527;SDS011;26230;51.268;6.534;2024-01-07T18:00:05;17.6;;;16.5;;
40527;SDS011;26230;51.268;6.534;2024-01-07T18:10:01;18.3;;;17.0;;
40527;SDS011;26230;51.268;6.534;2024-01-07T18:20:01;18.3;;;17.0;;
40527;SDS011;26230;51.268;6.534;2024-01-07T18:30:00;17.4;;;16.2;;
40527;SDS011;26230;51.268;6.534;2024-01-07T18:40:01;18.6;;;17.2;;
40527;SDS011;26230;51.268;6.534;2024-01-07T18:50:01;18.6;;;17.2;;
40527;SDS011;26230;51.268;6.534;2024-01-07T19:00:00;18.8;;;17.5;;
40527;SDS011;26230;51.268;6.534;2024-01-07T19:10:00;19.3;;;17.6;;
40527;SDS011;26230;51.268;6.534;2024-01-07T19:20:01;19.3;;;17.6;;
40527;SDS011;26230;51.268;6.534;2024-01-07T19:30:01;19.0;;;17.7;;
40527;SDS011;26230;51.268;6.534;2024-01-07T19:40:02;19.9;;;18.5;;
40527;SDS011;26230;51.268;6.534;2024-01-07T19:50:00;19.9;;;18.5;;
40527;SDS011;26230;51.268;6.534;2024-01-07T20:00:03;19.7;;;18.4;;
40527;SDS011;26230;51.268;6.534;2024-01-07T20:10:00;18.8;;;17.4;;
40527;SDS011;26230;51.268;6.534;2024-01-07T20:20:01;18.8;;;17.4;;
40527;SDS011;26230;51.268;6.534;2024-01-07T20:30:04;19.0;;;17.4;;
40527;SDS011;26230;51.268;6.534;2024-01-07T20:40:00;18.6;;;17.1;;
40527;SDS011;26230;51.268;6.534;2024-01-07T20:50:03;18.6;;;17.1;;
40527;SDS011;26230;51.268;6.534;2024-01-07T21:00:00;20.5;;;19.0;;
40527;SDS011;26230;51.268;6.534;2024-01-07T21:10:00;21.0;;;19.3;;
40527;SDS011;26230;51.268;6.534;2024-01-07T21:20:01;21.0;;;19.3;;
40527;SDS011;26230;51.268;6.534;2024-01-07T21:30:02;20.3;;;18.7;;
40527;SDS011;26230;51.268;6.534;2024-01-07T21:40:03;20.0;;;18.6;;
40527;SDS011;26230;51.268;6.534;2024-01-07T21:50:01;20.0;;;18.6;;
40527;SDS011;26230;51.268;6.534;2024-01-07T22:00:00;20.8;;;19.2;;
40527;SDS011;26230;51.268;6.534;2024-01-07T22:10:00;20.9;;;19.1;;
40527;SDS011;26230;51.268;6.534;2024-01-07T22:20:02;20.9;;;19.1;;
40527;SDS011;26230;51.268;6.534;2024-01-07T22:30:02;20.8;;;19.2;;
40527;SDS011;26230;51.268;6.534;2024-01-07T22:40:00;20.1;;;18.6;;
40527;SDS011;26230;51.268;6.534;2024-01-07T22:50:01;20.1;;;18.6;;
40527;SDS011;26230;51.268;6.534;2024-01-07T23:00:01;19.7;;;18.3;;
40527;SDS011;26230;51.268;6.534;2024-01-07T23:10:00;19.4;;;18.0;;
40527;SDS011;26230;51.268;6.534;2024-01-07T23:20:01;19.4;;;18.0;;
40527;SDS011;26230;51.268;6.534;2024-01-07T23:30:01;18.7;;;17.5;;
40527;SDS011;26230;51.268;6.534;2024-01-07T23:40:01;18.5;;;17.3;;
40527;SDS011;26230;51.268;6.534;2024-01-07T23:50:01;18.5;;;17.3;;
